Terminal Aerodrome Forecast
Issued by NWS

Home | Current Version | Previous Version | Graphics & Text | Print | Product List | Glossary Off
Versions: 1 2 3 4 5 6 7 8 9 10 11 12 13 14 15 16 17 18

000
FTUS43 KMPX 311700
TAFRNH
TAF
KRNH 311720Z 3118/0118 01010G17KT P6SM FEW040
     FM312100 01007KT P6SM SKC
     FM010100 VRB02KT P6SM SKC
     FM011400 15007KT P6SM SCT200=

USA.gov is the U.S. government's official web portal to all federal, state and local government web resources and services.